createdAt,value
2023-05-17T00:01:51.492Z,3.20
2023-05-17T00:04:20.050Z,3.07
2023-05-17T00:06:48.527Z,2.70
2023-05-17T00:09:17.003Z,3.20
2023-05-17T00:11:45.352Z,2.50
2023-05-17T00:14:14.332Z,3.33
2023-05-17T00:16:44.277Z,3.17
2023-05-17T00:19:12.973Z,2.57
2023-05-17T00:21:41.678Z,2.60
2023-05-17T00:24:10.413Z,2.73
2023-05-17T00:26:38.844Z,2.70
2023-05-17T00:29:07.434Z,3.00
2023-05-17T00:31:36.280Z,3.03
2023-05-17T00:34:06.036Z,2.40
2023-05-17T00:36:34.588Z,3.03
2023-05-17T00:39:03.138Z,2.90
2023-05-17T00:41:31.681Z,2.87
2023-05-17T00:44:00.154Z,2.60
2023-05-17T00:46:28.885Z,2.60
2023-05-17T00:48:57.540Z,3.37
2023-05-17T00:51:27.349Z,3.40
2023-05-17T00:53:56.521Z,2.93
2023-05-17T00:56:25.688Z,2.80
2023-05-17T00:58:55.038Z,2.97
2023-05-17T01:01:23.526Z,3.47
2023-05-17T01:03:52.287Z,3.50
2023-05-17T01:06:21.218Z,3.23
2023-05-17T01:08:51.222Z,3.60
2023-05-17T01:11:31.798Z,2.77
2023-05-17T01:14:07.837Z,3.23
2023-05-17T01:16:40.343Z,3.27
2023-05-17T01:19:22.348Z,3.07
2023-05-17T01:22:03.128Z,3.47
2023-05-17T01:24:46.698Z,3.30
2023-05-17T01:27:17.803Z,3.23
2023-05-17T01:29:47.327Z,2.90
2023-05-17T01:32:17.429Z,3.00
2023-05-17T01:34:45.963Z,3.20
2023-05-17T01:37:14.493Z,3.60
2023-05-17T01:39:43.075Z,3.27
2023-05-17T01:42:18.691Z,3.33
2023-05-17T01:44:51.686Z,3.73
2023-05-17T01:47:25.927Z,3.60
2023-05-17T01:49:56.716Z,3.47
2023-05-17T01:52:30.525Z,4.10
2023-05-17T01:55:06.054Z,3.53
2023-05-17T01:57:38.005Z,3.17
2023-05-17T02:00:09.229Z,3.70
2023-05-17T02:02:38.145Z,3.93
2023-05-17T02:05:07.256Z,3.60
2023-05-17T02:07:35.773Z,4.00
2023-05-17T02:10:04.769Z,3.60
2023-05-17T02:12:33.352Z,3.83
2023-05-17T02:15:03.096Z,3.83
2023-05-17T02:17:31.693Z,3.77
2023-05-17T02:20:00.172Z,3.67
2023-05-17T02:22:28.636Z,4.10
2023-05-17T02:24:57.044Z,4.33
2023-05-17T02:27:25.435Z,3.90
2023-05-17T02:29:54.180Z,3.90
2023-05-17T02:32:24.183Z,3.90
2023-05-17T02:34:52.603Z,3.73
2023-05-17T02:37:21.121Z,4.07
2023-05-17T02:39:49.640Z,4.20
2023-05-17T02:42:18.108Z,4.03
2023-05-17T02:44:48.516Z,4.27
2023-05-17T02:47:16.967Z,4.30
2023-05-17T02:49:46.604Z,3.73
2023-05-17T02:52:15.179Z,3.80
2023-05-17T02:54:44.554Z,5.10
2023-05-17T02:57:12.963Z,3.67
2023-05-17T02:59:41.364Z,4.30
2023-05-17T03:02:09.839Z,3.93
2023-05-17T03:04:38.333Z,4.67
2023-05-17T03:07:08.727Z,4.33
2023-05-17T03:09:37.592Z,3.97
2023-05-17T03:12:06.544Z,4.03
2023-05-17T03:14:35.143Z,4.70
2023-05-17T03:17:03.997Z,4.53
2023-05-17T03:19:32.413Z,4.07
2023-05-17T03:22:01.091Z,4.37
2023-05-17T03:24:30.875Z,4.27
2023-05-17T03:26:59.276Z,4.17
2023-05-17T03:29:27.704Z,3.70
2023-05-17T03:31:56.365Z,4.53
2023-05-17T03:34:24.824Z,4.50
2023-05-17T03:36:53.194Z,4.40
2023-05-17T03:39:21.772Z,4.30
2023-05-17T03:41:52.518Z,4.47
2023-05-17T03:44:20.923Z,4.77
2023-05-17T03:46:49.399Z,4.10
2023-05-17T03:49:18.321Z,4.50
2023-05-17T03:51:46.859Z,4.47
2023-05-17T03:54:15.327Z,4.17
2023-05-17T03:56:47.116Z,4.10
2023-05-17T03:59:17.515Z,4.40
2023-05-17T04:01:46.542Z,4.67
2023-05-17T04:04:15.110Z,3.80
2023-05-17T04:06:43.676Z,4.47
2023-05-17T04:09:14.012Z,4.67
2023-05-17T04:11:42.708Z,4.40
2023-05-17T04:14:11.237Z,3.70
2023-05-17T04:16:41.000Z,4.57
2023-05-17T04:19:09.585Z,4.57
2023-05-17T04:21:38.256Z,4.33
2023-05-17T04:24:07.938Z,4.20
2023-05-17T04:26:36.514Z,4.37
2023-05-17T04:29:04.970Z,4.60
2023-05-17T04:31:33.776Z,5.27
2023-05-17T04:34:03.500Z,4.10
2023-05-17T04:36:31.896Z,4.47
2023-05-17T04:39:00.431Z,4.60
2023-05-17T04:41:28.843Z,3.97
2023-05-17T04:43:57.601Z,4.07
2023-05-17T04:46:26.756Z,4.20
2023-05-17T04:48:56.321Z,4.40
2023-05-17T04:51:27.147Z,4.20
2023-05-17T04:53:55.625Z,4.50
2023-05-17T04:56:24.104Z,4.00
2023-05-17T04:58:53.049Z,4.20
2023-05-17T05:01:22.200Z,5.37
2023-05-17T05:03:50.804Z,5.37
2023-05-17T05:06:19.405Z,3.63
2023-05-17T05:08:49.057Z,3.87
2023-05-17T05:11:17.966Z,4.03
2023-05-17T05:13:46.452Z,3.80
2023-05-17T05:16:14.959Z,3.97
2023-05-17T05:18:43.338Z,3.67
2023-05-17T05:21:14.414Z,3.80
2023-05-17T05:23:42.820Z,4.77
2023-05-17T05:26:12.650Z,4.80
2023-05-17T05:28:41.142Z,3.80
2023-05-17T05:31:09.565Z,4.13
2023-05-17T05:33:38.231Z,5.87
2023-05-17T05:36:07.219Z,4.30
2023-05-17T05:38:36.461Z,3.80
2023-05-17T05:41:04.878Z,3.97
2023-05-17T05:43:36.193Z,4.00
2023-05-17T05:46:04.770Z,4.00
2023-05-17T05:48:33.369Z,4.27
2023-05-17T05:51:02.355Z,4.17
2023-05-17T05:53:30.765Z,3.53
2023-05-17T05:55:59.198Z,3.00
2023-05-17T05:58:27.469Z,3.17
2023-05-17T06:00:57.381Z,3.97
2023-05-17T06:03:25.822Z,3.60
2023-05-17T06:05:54.368Z,3.60
2023-05-17T06:08:22.903Z,3.60
2023-05-17T06:10:51.350Z,3.23
2023-05-17T06:13:19.963Z,3.80
2023-05-17T06:15:48.417Z,3.80
2023-05-17T06:18:18.252Z,3.50
2023-05-17T06:20:48.511Z,3.27
2023-05-17T06:23:17.068Z,3.50
2023-05-17T06:25:45.648Z,3.73
2023-05-17T06:28:14.052Z,3.17
2023-05-17T06:30:43.047Z,3.77
2023-05-17T06:33:11.654Z,3.53
2023-05-17T06:35:54.802Z,3.23
2023-05-17T06:38:24.519Z,3.80
2023-05-17T06:40:54.669Z,3.80
2023-05-17T06:43:23.394Z,3.30
2023-05-17T06:45:51.940Z,3.00
2023-05-17T06:48:20.311Z,3.47
2023-05-17T06:50:50.018Z,3.23
2023-05-17T06:53:18.718Z,3.83
2023-05-17T06:55:47.359Z,3.83
2023-05-17T06:58:15.863Z,3.73
2023-05-17T07:00:44.370Z,3.47
2023-05-17T07:03:12.831Z,3.70
2023-05-17T07:05:41.442Z,3.97
2023-05-17T07:08:11.158Z,3.67
2023-05-17T07:10:40.062Z,3.63
2023-05-17T07:13:08.492Z,3.73
2023-05-17T07:15:37.053Z,3.50
2023-05-17T07:18:05.887Z,3.70
2023-05-17T07:20:34.417Z,3.40
2023-05-17T07:23:02.971Z,3.97
2023-05-17T07:25:33.041Z,3.97
2023-05-17T07:28:01.436Z,3.50
2023-05-17T07:30:30.253Z,3.27
2023-05-17T07:32:59.118Z,3.40
2023-05-17T07:35:27.833Z,4.00
2023-05-17T07:37:56.497Z,2.70
2023-05-17T07:40:25.071Z,3.40
2023-05-17T07:42:54.831Z,3.03
2023-05-17T07:45:23.385Z,3.00
2023-05-17T07:47:53.008Z,3.10
2023-05-17T07:50:22.393Z,2.73
2023-05-17T07:52:50.922Z,3.37
2023-05-17T07:55:20.654Z,3.67
2023-05-17T07:57:49.106Z,3.37
2023-05-17T08:00:20.132Z,3.57
2023-05-17T08:02:48.563Z,3.57
2023-05-17T08:05:17.086Z,3.20
2023-05-17T08:07:45.652Z,3.07
2023-05-17T08:10:14.100Z,3.40
2023-05-17T08:12:42.696Z,3.50
2023-05-17T08:15:11.800Z,2.90
2023-05-17T08:17:41.609Z,3.40
2023-05-17T08:20:11.198Z,3.10
2023-05-17T08:22:39.811Z,3.43
2023-05-17T08:25:11.949Z,3.00
2023-05-17T08:27:40.390Z,3.03
2023-05-17T08:30:14.826Z,2.53
2023-05-17T08:32:48.156Z,3.73
2023-05-17T08:35:16.684Z,3.23
2023-05-17T08:37:45.192Z,3.33
2023-05-17T08:40:15.117Z,3.17
2023-05-17T08:42:44.499Z,3.20
2023-05-17T08:45:14.277Z,3.10
2023-05-17T08:47:44.127Z,2.90
2023-05-17T08:50:14.461Z,3.27
2023-05-17T08:52:46.062Z,3.00
2023-05-17T08:55:16.426Z,3.60
2023-05-17T08:57:47.133Z,3.03
2023-05-17T09:00:20.634Z,2.90
2023-05-17T09:02:49.864Z,2.70
2023-05-17T09:05:20.454Z,3.20
2023-05-17T09:07:50.472Z,3.03
2023-05-17T09:10:19.586Z,2.92
2023-05-17T09:12:49.920Z,2.70
2023-05-17T09:15:19.998Z,3.38
2023-05-17T09:17:53.711Z,3.15
2023-05-17T09:20:34.073Z,2.72
2023-05-17T09:23:02.975Z,3.20
2023-05-17T09:25:32.018Z,2.80
2023-05-17T09:28:03.306Z,3.03
2023-05-17T09:30:32.681Z,3.03
2023-05-17T09:33:07.238Z,3.50
2023-05-17T09:35:38.438Z,2.75
2023-05-17T09:38:11.366Z,3.30
2023-05-17T09:40:40.967Z,3.22
2023-05-17T09:43:09.723Z,2.95
2023-05-17T09:45:38.387Z,3.30
2023-05-17T09:48:14.859Z,3.50
2023-05-17T09:50:49.329Z,3.10
2023-05-17T09:53:27.796Z,2.85
2023-05-17T09:55:58.651Z,3.42
2023-05-17T09:58:28.770Z,3.10
2023-05-17T10:01:00.941Z,2.95
2023-05-17T10:03:36.495Z,2.60
2023-05-17T10:06:09.931Z,2.40
2023-05-17T10:08:46.057Z,2.58
2023-05-17T10:11:14.588Z,2.53
2023-05-17T10:13:48.855Z,2.65
2023-05-17T10:16:18.701Z,2.70
2023-05-17T10:18:48.595Z,2.45
2023-05-17T10:21:19.773Z,2.58
2023-05-17T10:23:49.199Z,2.53
2023-05-17T10:26:18.160Z,2.92
2023-05-17T10:28:47.399Z,2.60
2023-05-17T10:31:16.965Z,2.80
2023-05-17T10:33:48.576Z,3.33
2023-05-17T10:36:19.300Z,2.63
2023-05-17T10:38:48.567Z,2.58
2023-05-17T10:41:18.223Z,3.15
2023-05-17T10:43:47.450Z,2.85
2023-05-17T10:46:21.385Z,2.80
2023-05-17T10:48:52.146Z,2.92
2023-05-17T10:51:25.913Z,2.80
2023-05-17T10:54:11.743Z,3.10
2023-05-17T10:56:43.996Z,2.85
2023-05-17T10:59:26.892Z,2.97
2023-05-17T11:01:59.805Z,2.42
2023-05-17T11:04:29.579Z,2.75
2023-05-17T11:07:32.575Z,2.63
2023-05-17T11:10:14.167Z,2.63
2023-05-17T11:12:44.855Z,2.47
2023-05-17T11:15:14.713Z,2.53
2023-05-17T11:17:51.713Z,2.83
2023-05-17T11:20:36.898Z,2.70
2023-05-17T11:23:08.802Z,2.63
2023-05-17T11:25:38.926Z,3.10
2023-05-17T11:28:11.297Z,3.08
2023-05-17T11:30:43.542Z,3.30
2023-05-17T11:33:24.979Z,3.53
2023-05-17T11:36:06.293Z,3.22
2023-05-17T11:38:36.071Z,2.72
2023-05-17T11:43:50.845Z,3.00
2023-05-17T11:46:21.398Z,3.30
2023-05-17T11:48:52.116Z,2.42
2023-05-17T11:51:23.812Z,2.92
2023-05-17T11:53:56.657Z,3.10
2023-05-17T11:56:35.516Z,2.78
2023-05-17T11:59:11.290Z,2.75
2023-05-17T12:01:47.038Z,2.58
2023-05-17T12:04:15.601Z,2.60
2023-05-17T12:06:45.672Z,3.03
2023-05-17T12:09:17.907Z,3.03
2023-05-17T12:11:47.762Z,2.78
2023-05-17T12:14:17.964Z,2.53
2023-05-17T12:16:49.024Z,2.58
2023-05-17T12:19:20.801Z,3.42
2023-05-17T12:21:49.618Z,3.35
2023-05-17T12:24:19.738Z,3.83
2023-05-17T12:26:48.999Z,2.72
2023-05-17T12:29:22.944Z,2.55
2023-05-17T12:31:53.372Z,2.97
2023-05-17T12:34:22.150Z,2.50
2023-05-17T12:36:51.365Z,2.35
2023-05-17T12:39:24.097Z,2.30
2023-05-17T12:41:54.023Z,2.53
2023-05-17T12:44:22.559Z,1.98
2023-05-17T12:46:53.979Z,2.70
2023-05-17T12:49:23.445Z,2.85
2023-05-17T12:51:52.155Z,2.42
2023-05-17T12:54:31.405Z,2.42
2023-05-17T12:56:59.893Z,2.58
2023-05-17T12:59:29.311Z,2.90
2023-05-17T13:01:58.889Z,2.35
2023-05-17T13:04:31.855Z,2.30
2023-05-17T13:07:02.785Z,3.00
2023-05-17T13:09:34.297Z,2.67
2023-05-17T13:12:04.507Z,1.98
2023-05-17T13:14:41.931Z,2.20
2023-05-17T13:17:13.671Z,2.90
2023-05-17T13:19:42.375Z,2.88
2023-05-17T13:22:11.660Z,2.60
2023-05-17T13:24:41.566Z,2.30
2023-05-17T13:27:10.366Z,2.40
2023-05-17T13:29:40.932Z,1.88
2023-05-17T13:32:11.500Z,2.60
2023-05-17T13:34:40.572Z,2.42
2023-05-17T13:37:12.074Z,2.60
2023-05-17T13:39:42.794Z,1.98
2023-05-17T13:42:11.663Z,2.67
2023-05-17T13:44:40.700Z,2.15
2023-05-17T13:47:09.215Z,3.08
2023-05-17T13:49:38.290Z,1.85
2023-05-17T13:52:08.878Z,2.53
2023-05-17T13:54:38.142Z,2.47
2023-05-17T13:57:08.654Z,2.05
2023-05-17T13:59:37.180Z,2.80
2023-05-17T14:02:05.897Z,2.90
2023-05-17T14:04:35.052Z,2.63
2023-05-17T14:07:04.114Z,2.35
2023-05-17T14:09:34.350Z,2.22
2023-05-17T14:12:03.257Z,2.50
2023-05-17T14:14:33.157Z,2.10
2023-05-17T14:17:02.465Z,2.08
2023-05-17T14:19:31.099Z,1.80
2023-05-17T14:21:59.714Z,2.50
2023-05-17T14:24:28.137Z,2.55
2023-05-17T14:26:57.757Z,2.50
2023-05-17T14:29:27.034Z,2.55
2023-05-17T14:31:56.689Z,2.15
2023-05-17T14:34:25.445Z,2.10
2023-05-17T14:36:54.089Z,1.30
2023-05-17T14:39:22.638Z,1.17
2023-05-17T14:41:51.135Z,2.97
2023-05-17T14:44:19.667Z,2.13
2023-05-17T14:46:48.152Z,2.55
2023-05-17T14:49:17.913Z,2.45
2023-05-17T14:51:46.451Z,2.15
2023-05-17T14:54:14.898Z,3.72
2023-05-17T14:56:43.608Z,2.03
2023-05-17T14:59:12.648Z,1.98
2023-05-17T15:01:41.348Z,4.32
2023-05-17T15:04:10.409Z,2.78
2023-05-17T15:06:40.188Z,2.65
2023-05-17T15:09:13.019Z,5.68
2023-05-17T15:11:42.060Z,2.05
2023-05-17T15:14:10.507Z,2.28
2023-05-17T15:16:38.978Z,2.25
2023-05-17T15:19:08.155Z,2.42
2023-05-17T15:21:36.733Z,2.30
2023-05-17T15:24:07.027Z,1.35
2023-05-17T15:26:35.468Z,2.20
2023-05-17T15:29:03.904Z,2.08
2023-05-17T15:31:32.760Z,2.38
2023-05-17T15:34:01.580Z,2.60
2023-05-17T15:36:30.075Z,2.80
2023-05-17T15:38:58.493Z,2.78
2023-05-17T15:41:30.206Z,1.70
2023-05-17T15:43:58.960Z,2.25
2023-05-17T15:46:27.418Z,2.08
2023-05-17T15:48:57.002Z,1.85
2023-05-17T15:51:25.982Z,2.50
2023-05-17T15:53:54.448Z,2.10
2023-05-17T15:56:23.171Z,2.45
2023-05-17T15:58:53.002Z,1.40
2023-05-17T16:01:21.877Z,2.40
2023-05-17T16:03:50.625Z,1.60
2023-05-17T16:08:48.231Z,2.10
2023-05-17T16:11:17.436Z,2.30
2023-05-17T16:13:46.159Z,1.73
2023-05-17T16:16:16.235Z,2.35
2023-05-17T16:18:44.962Z,2.70
2023-05-17T16:21:13.601Z,3.00
2023-05-17T16:23:42.279Z,2.50
2023-05-17T16:26:10.812Z,2.97
2023-05-17T16:28:39.294Z,2.70
2023-05-17T16:31:08.177Z,2.92
2023-05-17T16:33:37.813Z,2.08
2023-05-17T16:36:06.789Z,2.33
2023-05-17T16:38:35.253Z,2.65
2023-05-17T16:41:03.904Z,2.50
2023-05-17T16:43:32.394Z,2.50
2023-05-17T16:46:01.035Z,2.37
2023-05-17T16:48:29.619Z,3.27
2023-05-17T16:50:59.832Z,2.40
2023-05-17T16:53:28.520Z,2.43
2023-05-17T16:55:56.998Z,2.60
2023-05-17T16:58:26.054Z,3.43
2023-05-17T17:00:54.735Z,2.33
2023-05-17T17:03:23.251Z,2.97
2023-05-17T17:05:51.810Z,3.20
2023-05-17T17:08:21.406Z,2.77
2023-05-17T17:10:50.226Z,2.70
2023-05-17T17:13:18.772Z,2.45
2023-05-17T17:15:47.461Z,2.70
2023-05-17T17:18:17.570Z,2.93
2023-05-17T17:20:46.435Z,2.33
2023-05-17T17:23:14.750Z,3.22
2023-05-17T17:25:44.340Z,2.38
2023-05-17T17:28:12.926Z,2.20
2023-05-17T17:30:41.526Z,2.47
2023-05-17T17:33:10.033Z,2.45
2023-05-17T17:35:38.870Z,2.40
2023-05-17T17:38:07.576Z,2.75
2023-05-17T17:40:36.222Z,2.05
2023-05-17T17:43:06.197Z,2.00
2023-05-17T17:45:34.870Z,2.40
2023-05-17T17:48:03.624Z,2.50
2023-05-17T17:50:32.506Z,2.47
2023-05-17T17:53:01.148Z,2.70
2023-05-17T17:55:29.741Z,2.42
2023-05-17T17:57:58.197Z,2.13
2023-05-17T18:00:28.369Z,2.60
2023-05-17T18:02:57.567Z,2.30
2023-05-17T18:05:26.483Z,2.65
2023-05-17T18:07:55.693Z,1.97
2023-05-17T18:10:24.108Z,2.83
2023-05-17T18:12:52.681Z,3.08
2023-05-17T18:15:21.203Z,2.63
2023-05-17T18:17:52.182Z,2.38
2023-05-17T18:20:22.260Z,2.43
2023-05-17T18:22:50.695Z,2.20
2023-05-17T18:25:19.312Z,2.43
2023-05-17T18:27:47.805Z,2.57
2023-05-17T18:30:16.606Z,2.70
2023-05-17T18:32:45.188Z,2.35
2023-05-17T18:35:14.959Z,2.13
2023-05-17T18:37:43.486Z,2.77
2023-05-17T18:40:12.867Z,2.53
2023-05-17T18:42:41.295Z,2.80
2023-05-17T18:45:10.765Z,2.60
2023-05-17T18:47:39.223Z,2.50
2023-05-17T18:50:08.652Z,2.77
2023-05-17T18:52:38.475Z,2.47
2023-05-17T18:55:07.371Z,2.30
2023-05-17T18:57:35.763Z,2.67
2023-05-17T19:00:04.889Z,3.13
2023-05-17T19:02:33.446Z,2.77
2023-05-17T19:05:02.062Z,2.50
2023-05-17T19:07:30.482Z,2.33
2023-05-17T19:10:00.562Z,2.87
2023-05-17T19:12:29.376Z,3.60
2023-05-17T19:14:57.995Z,3.90
2023-05-17T19:17:26.513Z,2.77
2023-05-17T19:19:55.041Z,3.17
2023-05-17T19:22:23.421Z,2.90
2023-05-17T19:24:51.895Z,3.00
2023-05-17T19:27:21.675Z,3.30
2023-05-17T19:29:50.174Z,3.37
2023-05-17T19:32:20.125Z,2.93
2023-05-17T19:34:48.594Z,3.13
2023-05-17T19:37:17.105Z,5.37
2023-05-17T19:39:46.102Z,6.43
2023-05-17T19:42:14.630Z,3.63
2023-05-17T19:44:44.211Z,3.20
2023-05-17T19:47:13.052Z,3.17
2023-05-17T19:49:41.764Z,3.10
2023-05-17T19:52:10.327Z,3.10
2023-05-17T19:54:38.893Z,2.87
2023-05-17T19:57:08.029Z,3.30
2023-05-17T19:59:36.635Z,3.00
2023-05-17T20:02:06.629Z,2.63
2023-05-17T20:04:35.379Z,3.47
2023-05-17T20:07:03.796Z,3.63
2023-05-17T20:09:32.255Z,3.33
2023-05-17T20:12:01.108Z,3.10
2023-05-17T20:14:29.587Z,3.23
2023-05-17T20:16:57.983Z,2.93
2023-05-17T20:19:28.111Z,3.13
2023-05-17T20:21:56.610Z,3.00
2023-05-17T20:24:25.996Z,3.07
2023-05-17T20:26:54.522Z,3.03
2023-05-17T20:29:23.042Z,3.00
2023-05-17T20:31:51.650Z,3.67
2023-05-17T20:34:20.348Z,3.97
2023-05-17T20:36:50.119Z,3.70
2023-05-17T20:39:19.709Z,3.73
2023-05-17T20:41:50.184Z,3.50
2023-05-17T20:44:20.270Z,3.73
2023-05-17T20:46:49.238Z,3.50
2023-05-17T20:49:18.205Z,3.23
2023-05-17T20:51:46.954Z,2.93
2023-05-17T20:54:16.811Z,3.17
2023-05-17T20:56:45.243Z,3.30
2023-05-17T20:59:14.036Z,3.37
2023-05-17T21:01:42.502Z,2.93
2023-05-17T21:04:11.301Z,4.00
2023-05-17T21:06:39.852Z,3.87
2023-05-17T21:09:09.143Z,3.40
2023-05-17T21:11:39.030Z,3.33
2023-05-17T21:14:07.552Z,3.37
2023-05-17T21:16:36.401Z,3.40
2023-05-17T21:19:04.987Z,3.33
2023-05-17T21:21:33.471Z,3.43
2023-05-17T21:24:01.993Z,3.27
2023-05-17T21:26:30.670Z,4.27
2023-05-17T21:29:00.602Z,2.67
2023-05-17T21:31:31.825Z,3.43
2023-05-17T21:34:00.426Z,3.53
2023-05-17T21:36:29.044Z,3.37
2023-05-17T21:38:57.619Z,3.00
2023-05-17T21:41:26.305Z,3.50
2023-05-17T21:43:54.815Z,3.03
2023-05-17T21:46:24.740Z,3.67
2023-05-17T21:48:53.351Z,3.63
2023-05-17T21:51:22.660Z,2.60
2023-05-17T21:53:51.346Z,3.47
2023-05-17T21:56:19.905Z,3.00
2023-05-17T21:58:48.291Z,3.00
2023-05-17T22:01:20.061Z,3.40
2023-05-17T22:03:52.040Z,3.40
2023-05-17T22:06:21.277Z,2.97
2023-05-17T22:08:49.790Z,3.10
2023-05-17T22:11:18.561Z,3.13
2023-05-17T22:13:47.129Z,3.00
2023-05-17T22:16:15.545Z,3.07
2023-05-17T22:18:45.482Z,3.27
2023-05-17T22:21:15.580Z,3.00
2023-05-17T22:23:44.026Z,3.30
2023-05-17T22:26:12.671Z,2.57
2023-05-17T22:28:41.309Z,3.37
2023-05-17T22:31:10.111Z,3.20
2023-05-17T22:33:38.577Z,3.30
2023-05-17T22:36:07.359Z,3.20
2023-05-17T22:38:37.006Z,3.83
2023-05-17T22:41:05.446Z,3.67
2023-05-17T22:43:33.844Z,3.60
2023-05-17T22:46:02.413Z,3.57
2023-05-17T22:48:32.129Z,3.60
2023-05-17T22:51:01.049Z,3.23
2023-05-17T22:53:30.391Z,3.47
2023-05-17T22:56:00.059Z,3.20
2023-05-17T22:58:28.649Z,3.57
2023-05-17T23:00:57.556Z,3.57
2023-05-17T23:03:26.135Z,3.37
2023-05-17T23:06:02.729Z,2.93
2023-05-17T23:08:31.352Z,3.10
2023-05-17T23:11:02.017Z,3.40
2023-05-17T23:13:30.395Z,3.57
2023-05-17T23:15:58.948Z,3.83
2023-05-17T23:18:27.943Z,3.30
2023-05-17T23:20:56.407Z,3.67
2023-05-17T23:23:24.883Z,3.27
2023-05-17T23:25:56.428Z,3.07
2023-05-17T23:28:26.668Z,3.03
2023-05-17T23:30:55.203Z,3.13
2023-05-17T23:33:23.668Z,3.63
2023-05-17T23:35:53.537Z,3.33
2023-05-17T23:38:22.311Z,3.37
2023-05-17T23:40:51.452Z,3.20
2023-05-17T23:43:19.917Z,3.10
2023-05-17T23:45:49.690Z,3.90
2023-05-17T23:48:20.806Z,3.33
2023-05-17T23:50:49.889Z,3.87
2023-05-17T23:53:18.725Z,4.20
2023-05-17T23:55:47.429Z,3.60
2023-05-17T23:58:15.800Z,3.53
